Time;durP1;ratioP1;P1;durP2;ratioP2;P2;SDS_P1;SDS_P2;PMS_P1;PMS_P2;Temp;Humidity;BMP_temperature;BMP_pressure;BME280_temperature;BME280_humidity;BME280_pressure;Samples;Min_cycle;Max_cycle;Signal;HPM_P1;HPM_P2
2020/12/14 00:01:22;;;;;;;9.80;4.57;;;23.90;50.60;;;;;;5074713;28;20445;-47
2020/12/14 00:03:49;;;;;;;8.63;4.05;;;24.00;50.60;;;;;;5074281;28;20094;-47
2020/12/14 00:06:15;;;;;;;8.52;4.15;;;23.90;50.50;;;;;;5074273;28;20032;-47
2020/12/14 00:08:42;;;;;;;9.65;4.20;;;23.90;50.50;;;;;;5074238;28;20025;-47
2020/12/14 00:11:09;;;;;;;10.18;4.18;;;23.90;50.40;;;;;;5074603;28;20062;-47
2020/12/14 00:13:36;;;;;;;12.32;5.38;;;23.90;50.40;;;;;;5073758;28;20517;-47
2020/12/14 00:16:08;;;;;;;12.48;6.00;;;23.90;50.40;;;;;;5074492;28;20452;-47
2020/12/14 00:18:34;;;;;;;;;;;23.90;50.30;;;;;;5075172;28;20073;-47
2020/12/14 00:21:00;;;;;;;11.52;4.40;;;23.90;50.70;;;;;;5074035;28;19966;-47
2020/12/14 00:23:27;;;;;;;20.75;4.45;;;23.90;50.30;;;;;;5074108;28;20012;-48
2020/12/14 00:25:53;;;;;;;25.33;5.22;;;23.90;50.30;;;;;;5072735;28;20345;-47
2020/12/14 00:28:20;;;;;;;14.50;5.00;;;23.90;50.30;;;;;;5071988;28;20028;-47
2020/12/14 00:30:46;;;;;;;18.38;5.10;;;23.90;50.40;;;;;;5072420;28;20398;-47
2020/12/14 00:33:13;;;;;;;14.43;4.68;;;23.90;50.40;;;;;;5073656;28;20388;-47
2020/12/14 00:35:39;;;;;;;14.68;4.78;;;23.90;50.50;;;;;;5072466;28;20027;-47
2020/12/14 00:38:06;;;;;;;16.05;4.65;;;23.90;50.40;;;;;;5074060;28;20356;-47
2020/12/14 00:40:32;;;;;;;10.82;4.35;;;24.00;50.50;;;;;;5074310;28;20043;-47
2020/12/14 00:42:59;;;;;;;13.43;4.70;;;24.00;50.50;;;;;;5074085;28;20021;-47
2020/12/14 00:45:25;;;;;;;15.18;4.05;;;24.00;50.50;;;;;;5073996;28;20020;-47
2020/12/14 00:47:52;;;;;;;10.45;4.00;;;24.00;50.50;;;;;;5073875;28;20468;-47
2020/12/14 00:50:18;;;;;;;9.25;3.97;;;24.10;50.40;;;;;;5073985;28;20016;-47
2020/12/14 00:52:45;;;;;;;11.80;3.83;;;24.10;50.30;;;;;;5073905;28;20009;-47
2020/12/14 00:55:11;;;;;;;12.68;4.00;;;24.10;50.30;;;;;;5073883;28;20029;-48
2020/12/14 00:57:38;;;;;;;11.18;3.53;;;24.20;50.20;;;;;;5073653;28;20423;-47
2020/12/14 01:00:06;;;;;;;11.05;3.50;;;24.30;50.20;;;;;;5073498;28;20056;-47
2020/12/14 01:02:32;;;;;;;6.60;3.58;;;24.30;50.10;;;;;;5074133;28;20021;-47
2020/12/14 01:04:59;;;;;;;10.52;3.47;;;24.40;50.00;;;;;;5073479;28;20025;-47
2020/12/14 01:07:25;;;;;;;6.95;2.92;;;24.40;49.90;;;;;;5073508;28;20024;-47
2020/12/14 01:09:52;;;;;;;9.55;3.40;;;24.50;49.80;;;;;;5073847;28;20036;-47
2020/12/14 01:12:18;;;;;;;6.50;3.13;;;24.50;49.70;;;;;;5073175;28;20475;-47
2020/12/14 01:14:45;;;;;;;19.17;3.65;;;24.60;49.60;;;;;;5073124;28;20023;-47
2020/12/14 01:17:11;;;;;;;9.50;3.28;;;24.60;49.60;;;;;;5073604;28;20028;-47
2020/12/14 01:19:38;;;;;;;9.38;2.85;;;24.60;49.40;;;;;;5073352;28;20510;-47
2020/12/14 01:22:04;;;;;;;8.68;2.95;;;24.80;49.40;;;;;;5073402;28;20086;-47
2020/12/14 01:24:31;;;;;;;8.45;3.10;;;24.80;49.20;;;;;;5073562;28;20029;-47
2020/12/14 01:26:57;;;;;;;7.65;2.78;;;24.80;49.10;;;;;;5073284;28;20107;-47
2020/12/14 01:29:24;;;;;;;11.50;2.80;;;24.90;49.00;;;;;;5073076;28;20483;-47
2020/12/14 01:31:50;;;;;;;5.57;2.72;;;25.00;48.90;;;;;;5073332;28;20016;-47
2020/12/14 01:34:17;;;;;;;6.85;2.80;;;25.10;48.80;;;;;;5072873;28;20066;-47
2020/12/14 01:36:47;;;;;;;9.32;2.47;;;25.10;48.70;;;;;;5072844;28;20017;-48
2020/12/14 01:39:13;;;;;;;7.97;2.42;;;25.20;48.60;;;;;;5072904;28;20085;-48
2020/12/14 01:41:40;;;;;;;12.88;2.90;;;25.30;48.60;;;;;;5075395;28;20175;-48
2020/12/14 01:44:06;;;;;;;11.93;3.05;;;25.30;48.50;;;;;;5072465;28;20071;-47
2020/12/14 01:46:33;;;;;;;10.25;2.85;;;25.40;48.30;;;;;;5076980;28;20025;-47
2020/12/14 01:49:01;;;;;;;7.47;2.53;;;25.50;48.10;;;;;;5076795;28;20445;-47
2020/12/14 01:51:31;;;;;;;5.35;2.20;;;25.60;48.00;;;;;;5076559;28;20048;-47
2020/12/14 01:53:59;;;;;;;7.50;2.10;;;25.70;47.90;;;;;;5077240;28;20107;-47
2020/12/14 01:56:26;;;;;;;6.47;2.20;;;25.80;47.80;;;;;;5076749;28;20020;-47
2020/12/14 01:58:53;;;;;;;9.20;2.13;;;25.90;47.60;;;;;;5077040;28;20078;-47
2020/12/14 02:01:20;;;;;;;10.70;2.63;;;26.00;47.50;;;;;;5076815;28;20448;-47
2020/12/14 02:03:46;;;;;;;9.48;2.58;;;26.20;47.40;;;;;;5076943;28;20023;-48
2020/12/14 02:06:12;;;;;;;5.20;2.15;;;26.30;47.30;;;;;;5076966;28;20107;-48
2020/12/14 02:08:39;;;;;;;3.90;2.10;;;26.40;47.10;;;;;;5076891;28;20017;-48
2020/12/14 02:11:05;;;;;;;6.43;2.10;;;26.60;47.00;;;;;;5076945;28;20027;-48
2020/12/14 02:13:32;;;;;;;4.60;1.60;;;26.70;46.80;;;;;;5077083;28;20151;-48
2020/12/14 02:15:59;;;;;;;11.07;2.42;;;26.80;46.70;;;;;;5076707;28;20021;-47
2020/12/14 02:18:25;;;;;;;4.88;1.88;;;27.00;46.50;;;;;;5076800;28;20127;-47
2020/12/14 02:20:52;;;;;;;5.30;1.90;;;27.00;46.40;;;;;;5076661;28;20017;-47
2020/12/14 02:23:18;;;;;;;6.18;2.13;;;27.20;46.40;;;;;;5077366;28;20017;-48
2020/12/14 02:25:45;;;;;;;7.03;2.13;;;27.30;46.10;;;;;;5076568;28;20082;-48
2020/12/14 02:28:11;;;;;;;7.72;1.70;;;27.40;45.90;;;;;;5076475;28;20031;-48
2020/12/14 02:30:38;;;;;;;4.03;1.90;;;27.50;45.80;;;;;;5076252;28;20025;-48
2020/12/14 02:33:04;;;;;;;5.38;2.53;;;27.60;45.70;;;;;;5075714;28;20040;-47
2020/12/14 02:35:31;;;;;;;6.57;1.70;;;27.70;45.50;;;;;;5075606;28;20103;-48
2020/12/14 02:37:57;;;;;;;12.05;2.15;;;27.80;45.40;;;;;;5076151;28;20055;-48
2020/12/14 02:40:24;;;;;;;4.88;1.65;;;27.90;45.30;;;;;;5076283;28;20375;-48
2020/12/14 02:42:51;;;;;;;6.35;1.83;;;28.00;45.30;;;;;;5076532;28;20035;-47
2020/12/14 02:45:17;;;;;;;7.22;1.80;;;28.00;45.10;;;;;;5076172;28;20028;-48
2020/12/14 02:47:44;;;;;;;5.43;1.70;;;28.10;44.90;;;;;;5076201;28;20029;-47
2020/12/14 02:50:10;;;;;;;6.10;1.80;;;28.20;45.00;;;;;;5074740;28;20017;-48
2020/12/14 02:52:37;;;;;;;5.57;1.75;;;28.20;44.60;;;;;;5076118;28;20025;-47
2020/12/14 02:55:03;;;;;;;5.20;2.03;;;28.30;44.50;;;;;;5076025;28;20020;-48
2020/12/14 02:57:30;;;;;;;4.97;1.77;;;28.30;44.50;;;;;;5076249;28;20024;-48
2020/12/14 02:59:56;;;;;;;4.75;1.75;;;28.40;44.50;;;;;;5075938;28;20473;-48
2020/12/14 03:02:23;;;;;;;3.17;1.70;;;28.40;44.40;;;;;;5075923;28;20024;-48
2020/12/14 03:04:49;;;;;;;3.95;1.63;;;28.40;44.30;;;;;;5075592;28;20058;-48
2020/12/14 03:07:16;;;;;;;7.70;1.83;;;28.50;44.40;;;;;;5074485;28;20021;-48
2020/12/14 03:09:42;;;;;;;4.63;1.90;;;28.50;44.20;;;;;;5073974;28;20054;-48
2020/12/14 03:12:11;;;;;;;7.63;1.83;;;28.50;44.10;;;;;;5074531;28;20107;-48
2020/12/14 03:14:37;;;;;;;5.90;1.65;;;28.50;44.00;;;;;;5074527;28;20017;-47
2020/12/14 03:17:04;;;;;;;5.47;1.75;;;28.50;44.00;;;;;;5075383;28;20024;-48
2020/12/14 03:19:31;;;;;;;6.25;1.90;;;28.50;44.00;;;;;;5075634;28;20059;-47
2020/12/14 03:21:57;;;;;;;12.38;2.00;;;28.40;44.00;;;;;;5075645;28;20113;-48
2020/12/14 03:24:25;;;;;;;4.15;1.85;;;28.50;44.00;;;;;;5075123;28;20040;-48
2020/12/14 03:26:51;;;;;;;7.40;1.77;;;28.40;43.90;;;;;;5073813;28;20032;-48
2020/12/14 03:29:18;;;;;;;7.25;2.15;;;28.40;43.90;;;;;;5066938;28;20104;-48
2020/12/14 03:31:45;;;;;;;9.07;1.90;;;28.40;44.10;;;;;;5070341;28;20031;-48
2020/12/14 03:34:12;;;;;;;2.63;1.48;;;28.30;44.00;;;;;;5074966;28;20013;-47
2020/12/14 03:36:38;;;;;;;6.93;1.50;;;28.30;44.00;;;;;;5074452;28;20112;-48
2020/12/14 03:39:07;;;;;;;7.00;2.03;;;28.30;44.10;;;;;;5074912;28;20070;-48
2020/12/14 03:41:33;;;;;;;11.77;1.95;;;28.30;44.20;;;;;;5074697;28;20025;-48
2020/12/14 03:44:00;;;;;;;6.10;1.70;;;28.20;44.10;;;;;;5075581;28;20029;-48
2020/12/14 03:46:28;;;;;;;7.10;1.55;;;28.20;44.10;;;;;;5074899;28;20032;-48
2020/12/14 03:48:58;;;;;;;6.28;1.50;;;28.20;44.10;;;;;;5074655;28;20333;-47
2020/12/14 03:51:25;;;;;;;3.08;1.33;;;28.10;44.90;;;;;;5074615;28;20028;-48
2020/12/14 03:53:52;;;;;;;5.68;1.60;;;28.10;44.20;;;;;;5074341;28;20028;-48
2020/12/14 03:56:20;;;;;;;5.90;1.45;;;28.00;44.20;;;;;;5073552;28;20411;-48
2020/12/14 03:58:46;;;;;;;7.72;1.58;;;28.00;44.20;;;;;;5074821;28;20048;-48
2020/12/14 04:01:18;;;;;;;3.75;1.40;;;28.00;44.30;;;;;;5074600;28;20048;-48
2020/12/14 04:03:44;;;;;;;5.57;1.52;;;27.90;44.30;;;;;;5074906;28;20033;-48
2020/12/14 04:06:20;;;;;;;3.33;1.15;;;27.90;44.30;;;;;;5074378;28;20063;-48
2020/12/14 04:08:47;;;;;;;2.95;1.50;;;27.80;44.30;;;;;;5074470;28;20021;-48
2020/12/14 04:11:14;;;;;;;5.53;1.38;;;27.70;44.30;;;;;;5074453;28;20017;-48
2020/12/14 04:13:41;;;;;;;4.13;1.40;;;27.70;44.40;;;;;;5074167;28;20032;-48
2020/12/14 04:16:09;;;;;;;3.47;1.20;;;27.70;44.40;;;;;;5074506;28;20020;-48
2020/12/14 04:18:36;;;;;;;3.58;1.40;;;27.60;44.50;;;;;;5074999;28;20028;-48
2020/12/14 04:21:22;;;;;;;3.15;1.40;;;27.60;44.50;;;;;;5074364;28;20020;-48
2020/12/14 04:23:48;;;;;;;3.47;1.30;;;27.50;44.60;;;;;;5073815;28;20071;-48
2020/12/14 04:26:15;;;;;;;3.78;1.40;;;27.50;44.70;;;;;;5074343;28;20445;-48
2020/12/14 04:28:42;;;;;;;6.63;1.50;;;27.40;44.60;;;;;;5073954;28;20044;-48
2020/12/14 04:31:08;;;;;;;4.63;1.58;;;27.40;44.70;;;;;;5074372;28;20024;-48
2020/12/14 04:33:36;;;;;;;6.75;1.70;;;27.30;44.60;;;;;;5074171;28;20048;-48
2020/12/14 04:36:03;;;;;;;12.25;1.40;;;27.30;44.50;;;;;;5074192;28;20427;-48
2020/12/14 04:38:30;;;;;;;2.83;1.13;;;27.20;44.60;;;;;;5073826;28;20016;-48
2020/12/14 04:41:02;;;;;;;4.93;1.20;;;27.20;44.80;;;;;;5074149;28;20020;-48
2020/12/14 04:43:30;;;;;;;5.05;1.40;;;27.10;44.90;;;;;;5074628;28;20051;-48
2020/12/14 04:45:59;;;;;;;5.68;1.52;;;27.00;44.90;;;;;;5074083;28;20021;-48
2020/12/14 04:48:26;;;;;;;7.13;1.30;;;27.00;45.00;;;;;;5074047;28;20017;-48
2020/12/14 04:50:53;;;;;;;5.25;1.55;;;26.90;45.00;;;;;;5074007;28;20020;-48
2020/12/14 04:53:21;;;;;;;4.10;1.25;;;26.90;45.10;;;;;;5074155;28;20090;-48
2020/12/14 04:55:47;;;;;;;3.20;1.23;;;26.90;45.10;;;;;;5072667;28;20032;-47
2020/12/14 04:58:13;;;;;;;4.72;1.20;;;26.90;45.20;;;;;;5074202;28;20348;-47
2020/12/14 05:00:40;;;;;;;4.53;1.10;;;26.80;45.20;;;;;;5073889;28;20117;-47
2020/12/14 05:03:07;;;;;;;4.38;1.20;;;26.80;45.20;;;;;;5073897;28;20017;-48
2020/12/14 05:05:34;;;;;;;3.25;1.08;;;26.80;45.30;;;;;;5073434;28;20103;-48
2020/12/14 05:08:00;;;;;;;4.50;1.20;;;26.70;45.30;;;;;;5073818;28;20028;-47
2020/12/14 05:10:28;;;;;;;2.90;1.10;;;26.70;45.30;;;;;;5074081;28;20356;-47
2020/12/14 05:12:55;;;;;;;2.20;1.25;;;26.70;45.30;;;;;;5074093;28;20028;-47
2020/12/14 05:15:32;;;;;;;3.08;1.40;;;26.60;45.40;;;;;;5077787;28;20031;-47
2020/12/14 05:18:10;;;;;;;2.45;1.20;;;26.60;45.30;;;;;;5078321;28;20039;-47
2020/12/14 05:20:37;;;;;;;2.08;1.02;;;26.50;46.10;;;;;;5077407;28;20025;-47
2020/12/14 05:23:05;;;;;;;5.88;1.30;;;26.50;45.40;;;;;;5077645;28;20020;-47
2020/12/14 05:25:32;;;;;;;2.53;1.30;;;26.50;45.50;;;;;;5077464;28;20095;-47
2020/12/14 05:28:05;;;;;;;2.53;1.35;;;26.40;45.50;;;;;;5077466;28;20035;-47
2020/12/14 05:30:50;;;;;;;2.13;1.20;;;26.40;45.50;;;;;;5077649;28;20021;-47
2020/12/14 05:33:28;;;;;;;2.88;1.20;;;26.30;45.70;;;;;;5077475;28;20041;-47
2020/12/14 05:35:54;;;;;;;2.70;1.20;;;26.30;45.60;;;;;;5077005;28;20027;-47
2020/12/14 05:38:23;;;;;;;4.88;1.58;;;26.20;45.40;;;;;;5077272;28;20353;-47
2020/12/14 05:40:52;;;;;;;18.88;15.23;;;26.10;45.40;;;;;;5076971;28;20107;-48
2020/12/14 05:43:27;;;;;;;9.55;4.18;;;26.10;45.50;;;;;;5077466;28;20016;-48
2020/12/14 05:45:54;;;;;;;8.23;3.85;;;26.00;45.60;;;;;;5077419;28;20024;-48
2020/12/14 05:48:25;;;;;;;7.13;4.38;;;25.90;45.80;;;;;;5077298;28;20035;-48
2020/12/14 05:50:54;;;;;;;10.40;4.45;;;25.90;45.90;;;;;;5077806;28;20025;-47
2020/12/14 05:53:21;;;;;;;10.10;3.67;;;25.90;45.90;;;;;;5077144;28;20036;-47
2020/12/14 05:55:48;;;;;;;8.77;3.88;;;25.90;46.00;;;;;;5076897;28;20066;-47
2020/12/14 05:58:16;;;;;;;7.68;3.60;;;25.80;46.00;;;;;;5077657;28;20067;-47
2020/12/14 06:00:53;;;;;;;5.95;3.60;;;25.80;46.10;;;;;;5077044;28;20032;-47
2020/12/14 06:03:22;;;;;;;5.55;3.30;;;25.80;46.10;;;;;;5077113;28;20431;-47
2020/12/14 06:05:51;;;;;;;7.43;3.55;;;25.80;46.20;;;;;;5076645;28;20037;-47
2020/12/14 06:08:40;;;;;;;5.13;3.15;;;25.80;46.20;;;;;;5076929;28;20017;-47
2020/12/14 06:11:07;;;;;;;7.75;3.08;;;25.80;46.30;;;;;;5076697;28;20349;-47
2020/12/14 06:13:46;;;;;;;7.43;3.13;;;25.80;46.20;;;;;;5076833;28;20032;-47
2020/12/14 06:16:20;;;;;;;9.43;3.00;;;25.90;46.30;;;;;;5077089;28;20088;-47
2020/12/14 06:18:47;;;;;;;4.03;2.53;;;25.90;46.10;;;;;;5076736;28;20028;-47
2020/12/14 06:21:38;;;;;;;7.07;2.78;;;25.90;46.20;;;;;;5076346;28;20009;-47
2020/12/14 06:24:07;;;;;;;5.10;2.60;;;25.90;46.10;;;;;;5056753;28;20029;-47
2020/12/14 06:26:37;;;;;;;5.30;2.65;;;26.00;46.10;;;;;;5074226;28;20111;-48
2020/12/14 06:29:04;;;;;;;5.82;2.30;;;26.00;46.00;;;;;;5065864;28;20521;-47
2020/12/14 06:31:31;;;;;;;7.00;2.42;;;26.00;46.00;;;;;;5060536;28;20044;-48
2020/12/14 06:34:02;;;;;;;16.38;3.25;;;26.00;45.90;;;;;;5075840;28;20381;-47
2020/12/14 06:36:35;;;;;;;19.02;3.40;;;26.10;45.90;;;;;;5077226;28;20111;-47
2020/12/14 06:39:02;;;;;;;16.20;2.92;;;26.10;45.90;;;;;;5076101;28;20024;-47
2020/12/14 06:41:31;;;;;;;8.30;2.85;;;26.10;45.80;;;;;;5076293;28;20028;-47
2020/12/14 06:44:09;;;;;;;14.65;2.50;;;26.10;45.80;;;;;;5075696;28;20020;-47
2020/12/14 06:46:36;;;;;;;11.15;2.35;;;26.10;45.80;;;;;;5075856;28;20032;-47
2020/12/14 06:49:03;;;;;;;9.45;2.55;;;26.10;45.80;;;;;;5075909;28;20349;-47
2020/12/14 06:51:49;;;;;;;14.40;2.65;;;26.00;45.70;;;;;;5075222;28;20020;-48
2020/12/14 06:54:39;;;;;;;7.25;2.35;;;26.00;45.80;;;;;;5075286;28;20016;-47
2020/12/14 06:57:07;;;;;;;11.18;2.25;;;26.00;45.90;;;;;;5075862;28;20086;-47
2020/12/14 06:59:34;;;;;;;7.68;2.13;;;26.00;45.90;;;;;;5075600;28;20028;-47
2020/12/14 07:02:02;;;;;;;7.90;2.60;;;25.90;45.70;;;;;;5070715;28;20036;-47
2020/12/14 07:04:29;;;;;;;5.30;2.03;;;25.90;45.80;;;;;;5076016;28;20052;-47
2020/12/14 07:07:28;;;;;;;10.02;2.53;;;25.90;45.80;;;;;;5075838;28;20033;-47
2020/12/14 07:10:09;;;;;;;8.75;2.20;;;25.90;45.90;;;;;;5074880;28;20032;-47
2020/12/14 07:12:44;;;;;;;7.30;2.38;;;25.90;45.90;;;;;;5076004;28;20073;-47
2020/12/14 07:15:29;;;;;;;6.03;2.03;;;25.80;45.70;;;;;;5075209;28;20536;-47
2020/12/14 07:18:07;;;;;;;3.15;1.50;;;25.80;45.80;;;;;;5075662;28;20021;-47
2020/12/14 07:20:36;;;;;;;5.88;1.90;;;25.80;45.80;;;;;;5075446;28;20104;-47
2020/12/14 07:23:06;;;;;;;5.30;1.90;;;25.80;45.80;;;;;;5075528;28;20112;-47
2020/12/14 07:25:34;;;;;;;4.70;1.70;;;25.80;45.80;;;;;;5074823;28;20032;-47
2020/12/14 07:28:02;;;;;;;4.90;1.70;;;25.80;45.80;;;;;;5074517;28;20048;-46
2020/12/14 07:30:29;;;;;;;3.83;1.65;;;25.80;45.80;;;;;;5075042;28;20039;-46
2020/12/14 07:32:58;;;;;;;3.10;1.30;;;25.80;45.80;;;;;;5069506;28;20167;-47
2020/12/14 07:35:25;;;;;;;3.75;1.63;;;25.70;45.80;;;;;;5067673;28;20029;-47
2020/12/14 07:37:51;;;;;;;3.15;1.73;;;25.70;45.80;;;;;;5067458;28;20032;-48
2020/12/14 07:40:18;;;;;;;4.78;1.40;;;25.70;45.80;;;;;;5055215;28;20024;-47
2020/12/14 07:42:44;;;;;;;3.22;1.75;;;25.70;45.70;;;;;;5065241;28;20013;-47
2020/12/14 07:45:17;;;;;;;8.25;1.73;;;25.70;45.70;;;;;;5082712;28;20436;-47
2020/12/14 07:47:46;;;;;;;3.95;1.30;;;25.70;45.70;;;;;;5071081;28;20471;-47
2020/12/14 07:50:18;;;;;;;4.60;1.30;;;25.70;45.80;;;;;;5075041;28;20103;-47
2020/12/14 07:52:54;;;;;;;3.13;1.50;;;25.70;45.70;;;;;;5070075;28;20036;-47
2020/12/14 07:55:27;;;;;;;2.38;0.90;;;25.70;45.80;;;;;;5073675;28;20024;-47
2020/12/14 07:57:55;;;;;;;3.15;1.45;;;25.70;45.70;;;;;;5074700;28;20024;-47
2020/12/14 08:00:23;;;;;;;5.65;1.60;;;25.70;45.70;;;;;;5074485;28;20360;-47
2020/12/14 08:02:51;;;;;;;6.28;1.60;;;25.70;45.70;;;;;;5073098;28;20028;-47
2020/12/14 08:05:19;;;;;;;3.05;1.30;;;25.70;45.70;;;;;;5075442;28;20020;-47
2020/12/14 08:07:47;;;;;;;3.35;1.30;;;25.70;45.70;;;;;;5074492;28;20024;-47
2020/12/14 08:10:14;;;;;;;2.78;1.30;;;25.70;45.60;;;;;;5074629;28;20099;-47
2020/12/14 08:12:42;;;;;;;1.92;1.10;;;25.70;45.60;;;;;;5074015;28;20527;-47
2020/12/14 08:15:20;;;;;;;2.80;1.10;;;25.70;45.60;;;;;;5074109;28;20131;-46
2020/12/14 08:17:47;;;;;;;2.78;1.35;;;25.70;45.60;;;;;;5071104;28;20112;-47
2020/12/14 08:20:33;;;;;;;2.65;1.23;;;25.70;45.60;;;;;;5071432;28;20479;-47
2020/12/14 08:23:01;;;;;;;5.13;1.20;;;25.70;45.70;;;;;;5068494;28;20032;-47
2020/12/14 08:25:32;;;;;;;2.15;1.17;;;25.60;45.50;;;;;;5072770;28;20028;-47
2020/12/14 08:28:04;;;;;;;2.83;1.02;;;25.60;45.40;;;;;;5068841;28;20033;-47
2020/12/14 08:30:31;;;;;;;2.55;1.10;;;25.60;45.50;;;;;;5072077;28;20480;-47
2020/12/14 08:33:08;;;;;;;1.60;0.85;;;25.60;45.50;;;;;;5071520;28;20055;-47
2020/12/14 08:35:35;;;;;;;1.30;0.88;;;25.60;45.50;;;;;;5072504;28;20024;-47
2020/12/14 08:38:10;;;;;;;3.72;0.93;;;25.50;45.50;;;;;;5073672;28;20407;-47
2020/12/14 08:40:37;;;;;;;1.75;1.02;;;25.50;45.50;;;;;;5074804;28;20162;-47
2020/12/14 08:43:15;;;;;;;2.50;0.93;;;25.50;45.50;;;;;;5071701;28;20461;-47
2020/12/14 08:46:00;;;;;;;3.03;1.02;;;25.40;45.40;;;;;;5068581;28;20028;-47
2020/12/14 08:48:30;;;;;;;3.95;1.20;;;25.40;45.50;;;;;;5065314;28;20441;-47
2020/12/14 08:51:08;;;;;;;2.28;1.20;;;25.30;45.40;;;;;;5070286;28;20036;-47
2020/12/14 08:53:36;;;;;;;1.55;0.88;;;25.30;45.50;;;;;;5074257;28;20032;-48
2020/12/14 08:56:08;;;;;;;2.20;1.00;;;25.20;45.50;;;;;;5073572;28;20055;-47
2020/12/14 08:58:53;;;;;;;3.38;0.95;;;25.20;45.50;;;;;;5067068;28;20035;-47
2020/12/14 09:01:21;;;;;;;1.40;0.90;;;25.10;45.60;;;;;;5073819;28;20024;-47
2020/12/14 09:03:53;;;;;;;1.92;0.80;;;25.10;45.70;;;;;;5073579;28;20027;-47
2020/12/14 09:06:33;;;;;;;2.53;1.00;;;25.00;45.60;;;;;;5073668;28;20048;-47
2020/12/14 09:09:14;;;;;;;1.75;0.90;;;25.00;45.80;;;;;;5073675;28;20032;-47
2020/12/14 09:11:46;;;;;;;1.73;0.87;;;24.90;45.90;;;;;;5073645;28;20027;-47
2020/12/14 09:14:24;;;;;;;2.05;0.80;;;24.80;45.90;;;;;;5073526;28;20021;-47
2020/12/14 09:16:52;;;;;;;1.60;0.80;;;24.80;46.00;;;;;;5054108;28;20037;-48
2020/12/14 09:19:24;;;;;;;1.27;0.82;;;24.70;46.00;;;;;;5059586;28;20397;-47
2020/12/14 09:21:51;;;;;;;1.80;1.00;;;24.60;46.10;;;;;;5073531;28;20016;-47
2020/12/14 09:24:29;;;;;;;1.70;0.80;;;24.60;46.30;;;;;;5073455;28;20035;-48
2020/12/14 09:27:22;;;;;;;1.67;0.80;;;24.50;46.30;;;;;;5061908;28;20464;-47
2020/12/14 09:29:48;;;;;;;1.67;0.90;;;24.40;46.50;;;;;;5073414;28;20456;-47
2020/12/14 09:32:15;;;;;;;3.75;0.93;;;24.40;46.50;;;;;;5073010;28;20449;-47
2020/12/14 09:34:42;;;;;;;1.13;0.80;;;24.30;46.60;;;;;;5066276;28;20073;-48
2020/12/14 09:37:09;;;;;;;2.15;0.80;;;24.20;46.60;;;;;;5065736;28;20020;-47
2020/12/14 09:39:39;;;;;;;2.30;0.93;;;24.10;46.80;;;;;;5069325;28;20452;-47
2020/12/14 09:42:05;;;;;;;1.48;0.73;;;24.10;46.80;;;;;;5074113;28;20012;-47
2020/12/14 09:44:32;;;;;;;1.08;0.80;;;24.00;46.90;;;;;;5070146;28;20372;-48
2020/12/14 09:47:04;;;;;;;1.65;0.80;;;24.00;47.00;;;;;;5068855;28;20029;-47
2020/12/14 09:49:30;;;;;;;1.33;0.77;;;23.90;47.10;;;;;;5072182;28;20134;-47
2020/12/14 09:51:57;;;;;;;2.13;0.75;;;23.80;47.10;;;;;;5073174;28;20040;-47
2020/12/14 09:54:23;;;;;;;1.20;0.65;;;23.80;47.20;;;;;;5070344;28;20024;-47
2020/12/14 09:56:50;;;;;;;2.97;0.80;;;23.70;47.30;;;;;;5072635;28;20506;-47
2020/12/14 09:59:16;;;;;;;2.08;0.85;;;23.60;47.30;;;;;;5073015;28;20013;-47
2020/12/14 10:01:43;;;;;;;0.75;0.60;;;23.60;47.50;;;;;;5077079;28;20371;-47
2020/12/14 10:04:10;;;;;;;1.15;0.90;;;23.50;47.50;;;;;;5077030;28;20055;-47
2020/12/14 10:06:36;;;;;;;2.22;0.70;;;23.40;47.60;;;;;;5076668;28;20031;-47
2020/12/14 10:09:03;;;;;;;1.05;0.80;;;23.40;47.70;;;;;;5076095;28;20019;-47
2020/12/14 10:11:33;;;;;;;1.50;0.70;;;23.30;47.80;;;;;;5076927;28;20024;-48
2020/12/14 10:14:00;;;;;;;1.45;0.82;;;23.20;47.80;;;;;;5076643;28;20107;-47
2020/12/14 10:16:27;;;;;;;2.42;0.80;;;23.10;48.00;;;;;;5076683;28;20033;-47
2020/12/14 10:18:53;;;;;;;0.82;0.70;;;23.10;48.00;;;;;;5076368;28;20016;-47
2020/12/14 10:21:20;;;;;;;0.75;0.60;;;23.00;48.10;;;;;;5077064;28;20028;-47
2020/12/14 10:23:47;;;;;;;1.15;0.80;;;22.90;48.20;;;;;;5076428;28;21677;-47
2020/12/14 10:26:16;;;;;;;1.13;0.60;;;22.90;48.30;;;;;;5075865;28;20478;-47
2020/12/14 10:28:43;;;;;;;0.88;0.60;;;22.80;48.30;;;;;;5076585;28;20024;-48
2020/12/14 10:31:09;;;;;;;1.25;0.80;;;22.70;48.40;;;;;;5076370;28;20035;-47
2020/12/14 10:33:37;;;;;;;0.63;0.60;;;22.70;48.50;;;;;;5076460;28;20040;-48
2020/12/14 10:36:15;;;;;;;0.90;0.68;;;22.60;48.50;;;;;;5068512;28;20368;-47
2020/12/14 10:38:41;;;;;;;2.30;0.80;;;22.50;49.30;;;;;;5073174;28;20036;-47
2020/12/14 10:41:08;;;;;;;1.13;0.70;;;22.40;48.70;;;;;;5076334;28;20024;-48
2020/12/14 10:43:35;;;;;;;1.13;0.70;;;22.40;48.80;;;;;;5075453;28;20526;-48
2020/12/14 10:46:02;;;;;;;1.00;0.63;;;22.30;48.90;;;;;;5068916;28;20125;-48
2020/12/14 10:48:28;;;;;;;0.60;0.60;;;22.30;49.00;;;;;;5069363;28;20017;-48
2020/12/14 10:50:56;;;;;;;0.95;0.73;;;22.20;49.00;;;;;;5072946;28;20373;-47
2020/12/14 10:53:23;;;;;;;2.13;0.70;;;22.10;49.10;;;;;;5075922;28;20020;-47
2020/12/14 10:55:50;;;;;;;1.38;0.60;;;22.00;49.30;;;;;;5075900;28;20055;-47
2020/12/14 10:58:17;;;;;;;0.50;0.50;;;22.00;49.20;;;;;;5075591;28;20513;-47
2020/12/14 11:00:43;;;;;;;1.95;0.75;;;21.90;49.40;;;;;;5076087;28;20028;-47
2020/12/14 11:03:10;;;;;;;0.77;0.57;;;21.90;49.40;;;;;;5075372;28;20017;-47
2020/12/14 11:05:36;;;;;;;1.25;0.80;;;21.80;49.50;;;;;;5075243;28;20043;-47
2020/12/14 11:08:03;;;;;;;0.88;0.65;;;21.70;49.70;;;;;;5075791;28;20012;-48
2020/12/14 11:10:29;;;;;;;9.88;1.10;;;21.70;49.70;;;;;;5075183;28;20031;-47
2020/12/14 11:12:56;;;;;;;9.07;1.17;;;21.60;50.50;;;;;;5075261;28;20104;-47
2020/12/14 11:15:22;;;;;;;5.53;0.77;;;21.60;50.60;;;;;;5074822;28;20017;-47
2020/12/14 11:17:49;;;;;;;2.95;0.93;;;21.50;50.40;;;;;;5075769;28;20029;-47
2020/12/14 11:20:16;;;;;;;2.40;0.70;;;21.50;50.40;;;;;;5075193;28;20016;-47
2020/12/14 11:22:42;;;;;;;2.00;0.70;;;21.40;50.30;;;;;;5075579;28;20115;-47
2020/12/14 11:25:10;;;;;;;1.73;0.63;;;21.30;50.30;;;;;;5074614;28;20028;-47
2020/12/14 11:27:37;;;;;;;2.40;0.68;;;21.30;50.40;;;;;;5075001;28;20035;-47
2020/12/14 11:30:05;;;;;;;2.28;0.90;;;21.20;50.40;;;;;;5075779;28;20027;-47
2020/12/14 11:32:32;;;;;;;2.58;0.70;;;21.20;50.50;;;;;;5075211;28;20041;-47
2020/12/14 11:34:59;;;;;;;2.47;0.70;;;21.10;50.60;;;;;;5070760;28;20032;-48
2020/12/14 11:37:25;;;;;;;3.10;0.82;;;21.10;50.70;;;;;;5068594;28;20111;-48
2020/12/14 11:39:52;;;;;;;4.25;0.60;;;21.00;50.60;;;;;;5067942;28;20024;-47
2020/12/14 11:42:19;;;;;;;0.85;0.57;;;21.00;50.80;;;;;;5069146;28;20028;-47
2020/12/14 11:44:45;;;;;;;1.75;0.60;;;20.90;50.80;;;;;;5074788;28;20032;-47
2020/12/14 11:47:12;;;;;;;1.35;0.63;;;20.90;50.90;;;;;;5074377;28;20032;-47
2020/12/14 11:49:40;;;;;;;2.17;0.60;;;20.80;51.00;;;;;;5074828;28;20100;-47
2020/12/14 11:52:08;;;;;;;1.65;0.70;;;20.70;51.00;;;;;;5074694;28;20020;-47
2020/12/14 11:54:35;;;;;;;1.60;0.70;;;20.70;51.10;;;;;;5074755;28;20535;-47
2020/12/14 11:57:01;;;;;;;0.95;0.60;;;20.60;51.10;;;;;;5074697;28;20044;-47
2020/12/14 11:59:28;;;;;;;2.22;0.52;;;20.60;51.20;;;;;;5074823;28;20035;-47
2020/12/14 12:01:55;;;;;;;3.70;0.65;;;20.50;51.30;;;;;;5074226;28;20044;-47
2020/12/14 12:04:22;;;;;;;2.50;0.50;;;20.50;51.40;;;;;;5074416;28;20078;-47
2020/12/14 12:06:48;;;;;;;0.63;0.47;;;20.40;51.40;;;;;;5074665;28;20035;-47
2020/12/14 12:09:15;;;;;;;3.05;0.68;;;20.40;51.40;;;;;;5074631;28;20021;-47
2020/12/14 12:11:43;;;;;;;1.88;0.60;;;20.30;51.50;;;;;;5074292;28;20037;-47
2020/12/14 12:14:09;;;;;;;3.42;0.80;;;20.30;51.70;;;;;;5074680;28;20029;-47
2020/12/14 12:16:35;;;;;;;1.08;0.52;;;20.20;51.80;;;;;;5074561;28;20027;-47
2020/12/14 12:19:02;;;;;;;0.98;0.60;;;20.20;51.80;;;;;;5074258;28;20099;-47
2020/12/14 12:21:29;;;;;;;1.88;0.70;;;20.10;51.90;;;;;;5073443;28;20476;-47
2020/12/14 12:23:55;;;;;;;1.55;0.80;;;20.10;52.00;;;;;;5075046;28;20337;-47
2020/12/14 12:26:22;;;;;;;2.08;0.60;;;20.10;52.00;;;;;;5074390;28;20169;-47
2020/12/14 12:28:48;;;;;;;0.93;0.55;;;20.00;52.00;;;;;;5073599;28;20028;-47
2020/12/14 12:31:15;;;;;;;1.13;0.50;;;19.90;52.10;;;;;;5073711;28;20028;-47
2020/12/14 12:33:41;;;;;;;3.92;0.60;;;19.90;52.20;;;;;;5073557;28;20044;-47
2020/12/14 12:36:09;;;;;;;5.60;0.70;;;19.90;52.30;;;;;;5067750;28;20453;-48
2020/12/14 12:38:35;;;;;;;0.50;0.50;;;19.80;52.50;;;;;;5066677;28;20077;-48
2020/12/14 12:41:02;;;;;;;0.90;0.50;;;19.70;52.60;;;;;;5072954;28;20453;-48
2020/12/14 12:43:29;;;;;;;0.75;0.57;;;19.70;52.70;;;;;;5070520;28;20357;-48
2020/12/14 12:45:55;;;;;;;1.58;0.60;;;19.70;52.70;;;;;;5066077;28;20036;-48
2020/12/14 12:48:22;;;;;;;1.08;0.50;;;19.60;52.70;;;;;;5070338;28;20033;-48
2020/12/14 12:50:55;;;;;;;0.75;0.57;;;19.60;52.80;;;;;;5073816;28;20074;-48
2020/12/14 12:53:26;;;;;;;0.88;0.40;;;19.50;52.80;;;;;;5073796;28;20032;-48